Time;durP1;ratioP1;P1;durP2;ratioP2;P2;SDS_P1;SDS_P2;PMS_P1;PMS_P2;Temp;Humidity;BMP_temperature;BMP_pressure;BME280_temperature;BME280_humidity;BME280_pressure;Samples;Min_cycle;Max_cycle;Signal;HPM_P1;HPM_P2
2022/08/02 00:01:27;;;;;;;0.80;0.80;;;;;;;;;;5040026;28;20201;-67
2022/08/02 00:04:02;;;;;;;1.10;1.00;;;;;;;;;;5046736;28;20237;-67
2022/08/02 00:06:33;;;;;;;0.87;0.87;;;;;;;;;;5058912;28;20259;-68
2022/08/02 00:09:06;;;;;;;0.83;0.83;;;;;;;;;;5052943;28;20190;-67
2022/08/02 00:11:38;;;;;;;0.80;0.80;;;;;;;;;;5055266;28;20288;-67
2022/08/02 00:14:15;;;;;;;0.80;0.80;;;;;;;;;;5052486;28;20284;-67
2022/08/02 00:16:48;;;;;;;1.23;1.10;;;;;;;;;;5058659;28;20232;-68
2022/08/02 00:19:17;;;;;;;1.10;1.10;;;;;;;;;;5045891;28;20924;-68
2022/08/02 00:21:48;;;;;;;0.87;0.87;;;;;;;;;;5061891;28;20178;-68
2022/08/02 00:24:20;;;;;;;0.80;0.80;;;;;;;;;;5063184;28;20198;-68
2022/08/02 00:27:02;;;;;;;0.73;0.73;;;;;;;;;;5053654;28;20210;-68
2022/08/02 00:29:38;;;;;;;0.80;0.80;;;;;;;;;;5054031;28;20193;-67
2022/08/02 00:32:20;;;;;;;1.27;0.90;;;;;;;;;;5069224;28;20197;-67
2022/08/02 00:34:51;;;;;;;0.87;0.87;;;;;;;;;;5051893;28;20209;-67
2022/08/02 00:37:22;;;;;;;0.70;0.70;;;;;;;;;;5057006;28;20638;-68
2022/08/02 00:40:05;;;;;;;1.33;1.23;;;;;;;;;;5057446;28;20912;-67
2022/08/02 00:42:38;;;;;;;1.33;0.73;;;;;;;;;;5061981;28;20194;-68
2022/08/02 00:45:11;;;;;;;0.70;0.70;;;;;;;;;;5063873;28;20194;-67
2022/08/02 00:47:39;;;;;;;0.70;0.70;;;;;;;;;;5036499;28;20225;-68
2022/08/02 00:50:12;;;;;;;0.70;0.70;;;;;;;;;;5053101;28;20214;-68
2022/08/02 00:52:43;;;;;;;0.70;0.70;;;;;;;;;;5030480;28;20193;-67
2022/08/02 00:55:10;;;;;;;0.87;0.87;;;;;;;;;;5056275;28;20202;-68
2022/08/02 00:57:45;;;;;;;0.70;0.70;;;;;;;;;;5057747;28;20614;-67
2022/08/02 01:00:16;;;;;;;0.77;0.77;;;;;;;;;;5065484;28;20193;-67
2022/08/02 01:02:46;;;;;;;0.67;0.67;;;;;;;;;;5051003;28;20201;-67
2022/08/02 01:05:16;;;;;;;1.10;1.00;;;;;;;;;;5047850;28;20194;-66
2022/08/02 01:07:46;;;;;;;0.70;0.70;;;;;;;;;;5032558;28;20718;-66
2022/08/02 01:10:28;;;;;;;0.90;0.90;;;;;;;;;;5065539;28;20197;-67
2022/08/02 01:12:57;;;;;;;0.80;0.77;;;;;;;;;;5057303;28;20208;-67
2022/08/02 01:15:47;;;;;;;0.80;0.80;;;;;;;;;;5069268;28;20223;-67
2022/08/02 01:18:23;;;;;;;0.80;0.80;;;;;;;;;;5072655;28;20639;-66
2022/08/02 01:21:11;;;;;;;0.80;0.80;;;;;;;;;;5068211;28;20205;-66
2022/08/02 01:24:05;;;;;;;0.60;0.60;;;;;;;;;;5068550;28;20190;-67
2022/08/02 01:26:57;;;;;;;0.70;0.70;;;;;;;;;;5068898;28;20743;-66
2022/08/02 01:29:35;;;;;;;0.80;0.80;;;;;;;;;;5051366;28;20545;-67
2022/08/02 01:32:20;;;;;;;0.80;0.80;;;;;;;;;;5051767;28;20193;-66
2022/08/02 01:35:11;;;;;;;0.70;0.70;;;;;;;;;;5048456;28;20207;-66
2022/08/02 01:38:06;;;;;;;0.80;0.80;;;;;;;;;;5048471;28;20324;-67
2022/08/02 01:40:38;;;;;;;1.00;0.87;;;;;;;;;;5048624;28;20211;-67
2022/08/02 01:43:20;;;;;;;0.60;0.60;;;;;;;;;;5050794;28;20246;-66
2022/08/02 01:45:52;;;;;;;0.90;0.60;;;;;;;;;;5067489;28;20281;-67
2022/08/02 01:48:21;;;;;;;1.17;0.90;;;;;;;;;;5068633;28;20197;-66
2022/08/02 01:50:57;;;;;;;0.97;0.80;;;;;;;;;;5064722;28;20217;-66
2022/08/02 01:53:30;;;;;;;0.80;0.80;;;;;;;;;;5067761;28;20523;-67
2022/08/02 01:56:15;;;;;;;0.70;0.70;;;;;;;;;;5056864;28;20193;-67
2022/08/02 01:58:47;;;;;;;0.60;0.57;;;;;;;;;;5064535;28;20209;-67
2022/08/02 02:01:19;;;;;;;0.80;0.70;;;;;;;;;;5067034;28;20276;-66
2022/08/02 02:03:52;;;;;;;1.20;0.80;;;;;;;;;;5063820;28;20240;-66
2022/08/02 02:06:25;;;;;;;0.80;0.80;;;;;;;;;;5038629;28;20214;-67
2022/08/02 02:09:01;;;;;;;0.70;0.70;;;;;;;;;;5060104;28;20202;-67
2022/08/02 02:11:30;;;;;;;1.10;0.70;;;;;;;;;;5032686;28;20634;-67
2022/08/02 02:14:19;;;;;;;0.70;0.70;;;;;;;;;;5057812;28;20189;-66
2022/08/02 02:16:52;;;;;;;1.00;0.90;;;;;;;;;;5041016;28;20224;-66
2022/08/02 02:19:31;;;;;;;0.60;0.60;;;;;;;;;;5069937;28;20495;-67
2022/08/02 02:21:59;;;;;;;0.77;0.73;;;;;;;;;;5050112;28;20328;-66
2022/08/02 02:24:36;;;;;;;0.73;0.73;;;;;;;;;;5047564;28;20212;-66
2022/08/02 02:27:16;;;;;;;0.70;0.70;;;;;;;;;;5044537;28;20198;-66
2022/08/02 02:29:50;;;;;;;1.13;0.90;;;;;;;;;;5060078;28;20198;-66
2022/08/02 02:32:19;;;;;;;0.80;0.80;;;;;;;;;;5050361;28;20202;-66
2022/08/02 02:34:50;;;;;;;1.07;1.03;;;;;;;;;;5051103;28;20256;-66
2022/08/02 02:37:23;;;;;;;0.70;0.70;;;;;;;;;;5065924;28;20252;-66
2022/08/02 02:39:57;;;;;;;0.70;0.70;;;;;;;;;;5057052;28;20209;-66
2022/08/02 02:42:40;;;;;;;1.00;0.93;;;;;;;;;;5066743;28;20209;-66
2022/08/02 02:45:22;;;;;;;1.13;0.80;;;;;;;;;;5064426;28;20186;-66
2022/08/02 02:47:56;;;;;;;0.73;0.73;;;;;;;;;;5066811;28;20201;-66
2022/08/02 02:50:27;;;;;;;0.90;0.70;;;;;;;;;;5039115;28;20346;-67
2022/08/02 02:53:00;;;;;;;0.80;0.80;;;;;;;;;;5055382;28;20225;-66
2022/08/02 02:55:33;;;;;;;0.70;0.70;;;;;;;;;;5057066;28;20206;-66
2022/08/02 02:58:07;;;;;;;0.70;0.70;;;;;;;;;;5050419;28;20197;-66
2022/08/02 03:03:27;;;;;;;0.80;0.80;;;;;;;;;;5053287;28;20230;-66
2022/08/02 03:06:08;;;;;;;1.27;0.97;;;;;;;;;;5065476;28;20267;-67
2022/08/02 03:08:44;;;;;;;0.80;0.80;;;;;;;;;;5072512;28;20197;-67
2022/08/02 03:11:16;;;;;;;0.80;0.70;;;;;;;;;;5060321;28;20606;-66
2022/08/02 03:13:52;;;;;;;1.27;0.80;;;;;;;;;;5066410;28;20201;-67
2022/08/02 03:16:22;;;;;;;0.80;0.80;;;;;;;;;;5062947;28;20233;-66
2022/08/02 03:18:54;;;;;;;0.80;0.80;;;;;;;;;;5066525;28;20278;-66
2022/08/02 03:21:23;;;;;;;0.80;0.80;;;;;;;;;;5053606;28;20221;-66
2022/08/02 03:23:53;;;;;;;0.90;0.80;;;;;;;;;;5050027;28;20208;-67
2022/08/02 03:26:25;;;;;;;0.70;0.70;;;;;;;;;;5059972;28;20214;-66
2022/08/02 03:29:01;;;;;;;1.10;0.90;;;;;;;;;;5030455;28;20586;-66
2022/08/02 03:31:42;;;;;;;0.70;0.70;;;;;;;;;;5052637;28;20683;-66
2022/08/02 03:34:12;;;;;;;0.77;0.60;;;;;;;;;;5049631;28;20220;-67
2022/08/02 03:36:44;;;;;;;0.80;0.80;;;;;;;;;;5065340;28;20737;-67
2022/08/02 03:39:17;;;;;;;1.27;1.07;;;;;;;;;;5056143;28;20683;-66
2022/08/02 03:41:49;;;;;;;1.03;0.90;;;;;;;;;;5066460;28;20202;-66
2022/08/02 03:44:20;;;;;;;1.50;0.80;;;;;;;;;;5049412;28;20216;-66
2022/08/02 03:46:50;;;;;;;0.93;0.90;;;;;;;;;;5067508;28;20589;-66
2022/08/02 03:49:23;;;;;;;0.80;0.80;;;;;;;;;;5053440;28;20200;-66
2022/08/02 03:52:05;;;;;;;0.70;0.70;;;;;;;;;;5061667;28;20677;-66
2022/08/02 03:54:35;;;;;;;0.60;0.60;;;;;;;;;;5051024;28;20205;-66
2022/08/02 03:57:13;;;;;;;0.80;0.80;;;;;;;;;;5041029;28;20204;-68
2022/08/02 03:59:45;;;;;;;1.27;0.80;;;;;;;;;;5063897;28;20232;-68
2022/08/02 04:02:15;;;;;;;0.80;0.80;;;;;;;;;;5068829;28;20194;-68
2022/08/02 04:04:46;;;;;;;0.70;0.70;;;;;;;;;;5066569;28;20979;-68
2022/08/02 04:07:18;;;;;;;0.93;0.70;;;;;;;;;;5067713;28;20976;-69
2022/08/02 04:10:09;;;;;;;0.77;0.77;;;;;;;;;;5052073;28;20247;-68
2022/08/02 04:12:39;;;;;;;0.80;0.80;;;;;;;;;;5070305;28;20236;-68
2022/08/02 04:15:09;;;;;;;0.97;0.87;;;;;;;;;;5068799;28;20200;-68
2022/08/02 04:17:44;;;;;;;0.80;0.80;;;;;;;;;;5062552;28;20225;-73
2022/08/02 04:20:28;;;;;;;0.83;0.70;;;;;;;;;;5068758;28;20181;-68
2022/08/02 04:23:01;;;;;;;0.70;0.70;;;;;;;;;;5046608;28;20323;-68
2022/08/02 04:25:35;;;;;;;0.70;0.70;;;;;;;;;;5055573;28;20806;-67
2022/08/02 04:28:08;;;;;;;1.00;0.90;;;;;;;;;;5074079;28;20646;-67
2022/08/02 04:30:49;;;;;;;1.20;0.80;;;;;;;;;;5050078;28;20211;-68
2022/08/02 04:33:19;;;;;;;1.00;0.73;;;;;;;;;;5047598;28;20607;-68
2022/08/02 04:35:49;;;;;;;0.73;0.73;;;;;;;;;;5059245;28;20225;-69
2022/08/02 04:38:25;;;;;;;0.73;0.73;;;;;;;;;;5063421;28;20209;-68
2022/08/02 04:40:57;;;;;;;0.80;0.77;;;;;;;;;;5060270;28;20206;-68
2022/08/02 04:43:29;;;;;;;1.07;0.93;;;;;;;;;;5047992;28;20663;-68
2022/08/02 04:46:06;;;;;;;1.07;0.80;;;;;;;;;;5066898;28;20194;-68
2022/08/02 04:48:41;;;;;;;0.90;0.80;;;;;;;;;;5057570;28;20197;-68
2022/08/02 04:51:15;;;;;;;1.20;0.70;;;;;;;;;;5059667;28;20193;-68
2022/08/02 04:53:46;;;;;;;1.17;0.90;;;;;;;;;;5064881;28;20667;-69
2022/08/02 04:56:16;;;;;;;1.03;0.67;;;;;;;;;;5063357;28;20260;-68
2022/08/02 04:58:45;;;;;;;0.80;0.80;;;;;;;;;;5052123;28;20293;-68
2022/08/02 05:01:19;;;;;;;2.90;0.80;;;;;;;;;;5063861;28;20590;-68
2022/08/02 05:03:53;;;;;;;0.80;0.80;;;;;;;;;;5063554;28;20209;-68
2022/08/02 05:06:24;;;;;;;1.83;1.10;;;;;;;;;;5062356;28;20229;-67
2022/08/02 05:08:53;;;;;;;2.10;0.80;;;;;;;;;;5062680;28;20375;-67
2022/08/02 05:11:24;;;;;;;0.97;0.87;;;;;;;;;;5069747;28;20522;-68
2022/08/02 05:14:10;;;;;;;1.10;1.00;;;;;;;;;;5059065;28;20232;-68
2022/08/02 05:16:43;;;;;;;1.60;1.10;;;;;;;;;;5065174;28;20213;-68
2022/08/02 05:19:11;;;;;;;0.83;0.80;;;;;;;;;;5055814;28;20218;-68
2022/08/02 05:21:41;;;;;;;1.10;1.00;;;;;;;;;;5054885;28;20674;-68
2022/08/02 05:24:15;;;;;;;1.30;0.70;;;;;;;;;;5064504;28;20592;-68
2022/08/02 05:26:47;;;;;;;1.63;0.90;;;;;;;;;;5068934;28;20198;-68
2022/08/02 05:29:18;;;;;;;1.73;1.10;;;;;;;;;;5064276;28;20850;-68
2022/08/02 05:31:53;;;;;;;0.90;0.90;;;;;;;;;;5069170;28;20202;-68
2022/08/02 05:34:27;;;;;;;1.60;1.10;;;;;;;;;;5052625;28;20215;-68
2022/08/02 05:36:55;;;;;;;2.83;1.00;;;;;;;;;;5065650;28;20720;-68
2022/08/02 05:39:28;;;;;;;1.07;1.00;;;;;;;;;;5059065;28;20763;-68
2022/08/02 05:42:00;;;;;;;1.63;0.97;;;;;;;;;;5049187;28;20234;-68
2022/08/02 05:44:45;;;;;;;1.23;1.00;;;;;;;;;;5052608;28;20292;-71
2022/08/02 05:47:16;;;;;;;1.43;1.03;;;;;;;;;;5047885;28;20198;-68
2022/08/02 05:49:49;;;;;;;1.53;1.10;;;;;;;;;;5054593;28;20190;-68
2022/08/02 05:52:20;;;;;;;1.83;1.20;;;;;;;;;;5061532;28;20202;-68
2022/08/02 05:55:17;;;;;;;1.07;0.97;;;;;;;;;;5050353;28;20577;-67
2022/08/02 05:57:57;;;;;;;1.10;1.00;;;;;;;;;;5054281;28;20216;-68
2022/08/02 06:00:31;;;;;;;1.40;1.23;;;;;;;;;;5049641;28;20270;-68
2022/08/02 06:03:15;;;;;;;1.30;1.20;;;;;;;;;;5031897;28;20263;-67
2022/08/02 06:06:08;;;;;;;1.47;1.20;;;;;;;;;;5066962;28;20200;-67
2022/08/02 06:08:40;;;;;;;1.13;1.00;;;;;;;;;;5053885;28;20244;-68
2022/08/02 06:11:33;;;;;;;1.70;1.20;;;;;;;;;;5048133;28;20646;-67
2022/08/02 06:14:03;;;;;;;2.70;1.67;;;;;;;;;;5065054;28;20745;-68
2022/08/02 06:16:33;;;;;;;1.60;1.10;;;;;;;;;;5044697;28;20222;-68
2022/08/02 06:19:17;;;;;;;2.73;1.20;;;;;;;;;;5045165;28;20206;-68
2022/08/02 06:21:50;;;;;;;1.33;1.03;;;;;;;;;;5060591;28;20217;-67
2022/08/02 06:24:47;;;;;;;1.23;1.13;;;;;;;;;;5067971;28;20205;-68
2022/08/02 06:27:20;;;;;;;2.37;1.30;;;;;;;;;;5058961;28;20214;-68
2022/08/02 06:29:53;;;;;;;1.60;1.50;;;;;;;;;;5061670;28;20200;-68
2022/08/02 06:32:24;;;;;;;2.87;1.43;;;;;;;;;;5049503;28;20769;-68
2022/08/02 06:34:59;;;;;;;2.20;1.50;;;;;;;;;;5041835;28;20284;-68
2022/08/02 06:37:30;;;;;;;2.80;1.30;;;;;;;;;;5048182;28;20275;-68
2022/08/02 06:40:06;;;;;;;1.57;1.10;;;;;;;;;;5059734;28;20230;-67
2022/08/02 06:42:47;;;;;;;2.40;1.70;;;;;;;;;;5066333;28;20619;-67
2022/08/02 06:45:20;;;;;;;1.53;1.20;;;;;;;;;;5063359;28;20673;-68
2022/08/02 06:47:51;;;;;;;1.23;1.13;;;;;;;;;;5047420;28;20710;-67
2022/08/02 06:50:22;;;;;;;1.40;1.30;;;;;;;;;;5055142;28;20887;-67
2022/08/02 06:52:56;;;;;;;1.67;1.40;;;;;;;;;;5057575;28;20210;-68
2022/08/02 06:55:31;;;;;;;1.63;1.33;;;;;;;;;;5064800;28;20197;-68
2022/08/02 06:58:11;;;;;;;3.10;1.67;;;;;;;;;;5064129;28;20581;-68
2022/08/02 07:00:42;;;;;;;2.47;1.73;;;;;;;;;;5047591;28;20194;-68
2022/08/02 07:03:14;;;;;;;2.43;1.57;;;;;;;;;;5031049;28;20232;-67
2022/08/02 07:05:47;;;;;;;1.60;1.50;;;;;;;;;;5050034;28;20639;-68
2022/08/02 07:08:20;;;;;;;1.33;1.23;;;;;;;;;;5055274;28;20224;-68
2022/08/02 07:10:50;;;;;;;1.73;1.20;;;;;;;;;;5047134;28;20255;-68
2022/08/02 07:13:23;;;;;;;1.57;1.40;;;;;;;;;;5057030;28;20186;-67
2022/08/02 07:15:57;;;;;;;2.60;1.80;;;;;;;;;;5062486;28;20288;-68
2022/08/02 07:18:27;;;;;;;1.87;1.50;;;;;;;;;;5048423;28;20215;-68
2022/08/02 07:20:57;;;;;;;2.13;1.50;;;;;;;;;;5057641;28;20219;-68
2022/08/02 07:23:28;;;;;;;1.70;1.60;;;;;;;;;;5064504;28;20221;-68
2022/08/02 07:25:57;;;;;;;1.90;1.70;;;;;;;;;;5065483;28;20186;-67
2022/08/02 07:28:30;;;;;;;1.43;1.33;;;;;;;;;;5050884;28;20848;-68
2022/08/02 07:31:03;;;;;;;1.70;1.60;;;;;;;;;;5064418;28;20333;-67
2022/08/02 07:33:31;;;;;;;2.07;1.73;;;;;;;;;;5065780;28;20651;-68
2022/08/02 07:36:09;;;;;;;1.67;1.40;;;;;;;;;;5065794;28;20601;-67
2022/08/02 07:38:50;;;;;;;1.97;1.37;;;;;;;;;;5020502;28;20683;-68
2022/08/02 07:41:23;;;;;;;2.23;1.50;;;;;;;;;;5032099;28;20199;-67
2022/08/02 07:43:57;;;;;;;2.30;1.53;;;;;;;;;;5019107;28;20222;-67
2022/08/02 07:46:27;;;;;;;1.50;1.40;;;;;;;;;;5047250;28;20197;-68
2022/08/02 07:49:00;;;;;;;2.33;1.60;;;;;;;;;;5041505;28;20237;-68
2022/08/02 07:51:47;;;;;;;2.03;1.70;;;;;;;;;;5042311;28;20210;-67
2022/08/02 07:54:19;;;;;;;2.07;1.50;;;;;;;;;;5029112;28;20523;-68
2022/08/02 07:56:48;;;;;;;1.93;1.70;;;;;;;;;;5027670;28;20211;-69
2022/08/02 07:59:30;;;;;;;3.10;1.60;;;;;;;;;;5030113;28;20300;-68
2022/08/02 08:02:13;;;;;;;1.93;1.83;;;;;;;;;;5034850;28;20292;-68
2022/08/02 08:04:47;;;;;;;1.63;1.53;;;;;;;;;;5036519;28;20298;-68
2022/08/02 08:07:17;;;;;;;1.90;1.70;;;;;;;;;;5036640;28;20284;-68
2022/08/02 08:09:49;;;;;;;2.03;1.60;;;;;;;;;;5026039;28;20198;-68
2022/08/02 08:12:24;;;;;;;1.40;1.30;;;;;;;;;;5046746;28;20280;-68
2022/08/02 08:14:55;;;;;;;1.70;1.60;;;;;;;;;;5041722;28;20197;-68
2022/08/02 08:17:29;;;;;;;1.90;1.60;;;;;;;;;;5037325;28;20230;-68
2022/08/02 08:20:01;;;;;;;1.77;1.67;;;;;;;;;;5034687;28;20206;-68
2022/08/02 08:22:35;;;;;;;1.97;1.77;;;;;;;;;;5038852;28;20190;-68
2022/08/02 08:25:07;;;;;;;1.70;1.57;;;;;;;;;;5046266;28;20648;-68
2022/08/02 08:27:39;;;;;;;1.63;1.40;;;;;;;;;;5038740;28;20214;-68
2022/08/02 08:30:12;;;;;;;1.50;1.40;;;;;;;;;;5041907;28;20282;-68
2022/08/02 08:32:43;;;;;;;2.27;1.57;;;;;;;;;;5019507;28;20786;-68
2022/08/02 08:35:14;;;;;;;1.70;1.60;;;;;;;;;;5039140;28;20194;-68
2022/08/02 08:37:45;;;;;;;1.50;1.40;;;;;;;;;;5037972;28;20240;-67
2022/08/02 08:40:28;;;;;;;1.80;1.60;;;;;;;;;;5063161;28;20221;-67
2022/08/02 08:42:57;;;;;;;1.80;1.33;;;;;;;;;;5084170;28;20189;-68
2022/08/02 08:45:26;;;;;;;1.50;1.40;;;;;;;;;;5095812;28;20211;-68
2022/08/02 08:48:12;;;;;;;1.70;1.60;;;;;;;;;;5071325;28;20633;-68
2022/08/02 08:51:01;;;;;;;1.90;1.70;;;;;;;;;;5082012;28;20212;-68
2022/08/02 08:53:38;;;;;;;1.53;1.43;;;;;;;;;;5072814;28;20193;-68
2022/08/02 08:56:08;;;;;;;1.47;1.37;;;;;;;;;;5089043;28;20607;-68
2022/08/02 08:58:51;;;;;;;1.73;1.63;;;;;;;;;;5073559;28;20208;-67
2022/08/02 09:01:23;;;;;;;1.50;1.40;;;;;;;;;;5089464;28;20203;-67
2022/08/02 09:04:18;;;;;;;1.70;1.60;;;;;;;;;;5076476;28;20293;-68
2022/08/02 09:06:48;;;;;;;2.03;1.90;;;;;;;;;;5071755;28;20216;-68
2022/08/02 09:09:19;;;;;;;1.77;1.67;;;;;;;;;;5074857;28;20217;-68
2022/08/02 09:11:50;;;;;;;1.70;1.60;;;;;;;;;;5072814;28;20612;-68
2022/08/02 09:14:28;;;;;;;2.43;1.77;;;;;;;;;;5087101;28;20196;-67
2022/08/02 09:17:08;;;;;;;1.70;1.60;;;;;;;;;;5067101;28;20216;-67
2022/08/02 09:19:45;;;;;;;1.70;1.60;;;;;;;;;;5075438;28;20218;-68
2022/08/02 09:22:19;;;;;;;1.83;1.67;;;;;;;;;;5081606;28;20740;-68
2022/08/02 09:24:48;;;;;;;1.83;1.70;;;;;;;;;;5080727;28;20216;-68
2022/08/02 09:27:20;;;;;;;1.60;1.50;;;;;;;;;;5054534;28;20220;-69
2022/08/02 09:29:54;;;;;;;1.90;1.57;;;;;;;;;;5086940;28;20300;-68
2022/08/02 09:32:49;;;;;;;2.20;1.70;;;;;;;;;;5076719;28;20197;-68
2022/08/02 09:35:39;;;;;;;1.80;1.70;;;;;;;;;;5072270;28;20523;-68
2022/08/02 09:38:32;;;;;;;1.70;1.60;;;;;;;;;;5069599;28;20230;-68
2022/08/02 09:41:04;;;;;;;1.60;1.50;;;;;;;;;;5063152;28;20244;-67
2022/08/02 09:43:42;;;;;;;1.70;1.60;;;;;;;;;;5070762;28;20634;-68
2022/08/02 09:46:35;;;;;;;1.87;1.67;;;;;;;;;;5072285;28;20864;-68
2022/08/02 09:49:17;;;;;;;1.70;1.57;;;;;;;;;;5064667;28;20189;-69
2022/08/02 09:51:58;;;;;;;2.13;1.60;;;;;;;;;;5084412;28;20227;-67
2022/08/02 09:54:29;;;;;;;1.80;1.70;;;;;;;;;;5086581;28;20200;-67
2022/08/02 09:57:01;;;;;;;1.73;1.50;;;;;;;;;;5079282;28;20623;-68
2022/08/02 09:59:32;;;;;;;1.50;1.40;;;;;;;;;;5084005;28;20222;-68
2022/08/02 10:02:10;;;;;;;1.80;1.70;;;;;;;;;;5069374;28;20243;-68
2022/08/02 10:04:51;;;;;;;1.40;1.30;;;;;;;;;;5082566;28;20209;-69
2022/08/02 10:07:21;;;;;;;1.57;1.47;;;;;;;;;;5085153;28;20197;-68
2022/08/02 10:09:52;;;;;;;2.53;1.70;;;;;;;;;;5069813;28;20239;-68
2022/08/02 10:12:37;;;;;;;1.60;1.50;;;;;;;;;;5073736;28;20221;-68
2022/08/02 10:15:07;;;;;;;1.83;1.60;;;;;;;;;;5074608;28;20212;-68
2022/08/02 10:17:39;;;;;;;1.57;1.47;;;;;;;;;;5076500;28;20322;-67
2022/08/02 10:20:14;;;;;;;1.60;1.50;;;;;;;;;;5084201;28;20224;-68
2022/08/02 10:22:49;;;;;;;1.70;1.60;;;;;;;;;;5079720;28;20189;-68
2022/08/02 10:25:25;;;;;;;1.50;1.40;;;;;;;;;;5098217;28;20211;-68
2022/08/02 10:28:09;;;;;;;1.80;1.70;;;;;;;;;;5083029;28;20842;-68
2022/08/02 10:31:04;;;;;;;1.40;1.30;;;;;;;;;;5071849;28;20523;-68
2022/08/02 10:33:35;;;;;;;1.50;1.40;;;;;;;;;;5079191;28;20212;-69
2022/08/02 10:36:06;;;;;;;1.70;1.60;;;;;;;;;;5053728;28;20202;-69
2022/08/02 10:38:39;;;;;;;1.80;1.60;;;;;;;;;;5081924;28;20225;-68
2022/08/02 10:41:14;;;;;;;1.93;1.70;;;;;;;;;;5064736;28;20670;-68
2022/08/02 10:43:49;;;;;;;1.67;1.57;;;;;;;;;;5079060;28;20280;-69
2022/08/02 10:46:26;;;;;;;1.63;1.53;;;;;;;;;;5061880;28;20185;-68
2022/08/02 10:49:08;;;;;;;1.57;1.47;;;;;;;;;;5066636;28;20208;-68
2022/08/02 10:52:04;;;;;;;1.70;1.60;;;;;;;;;;5076644;28;20208;-68
2022/08/02 10:54:37;;;;;;;1.60;1.50;;;;;;;;;;5085650;28;20633;-69
2022/08/02 10:57:27;;;;;;;1.70;1.60;;;;;;;;;;5075525;28;20264;-68
2022/08/02 11:00:28;;;;;;;2.43;1.33;;;;;;;;;;5084984;28;20274;-68
2022/08/02 11:03:00;;;;;;;1.60;1.50;;;;;;;;;;5074828;28;20185;-68
2022/08/02 11:05:33;;;;;;;1.50;1.40;;;;;;;;;;5085625;28;20209;-68
2022/08/02 11:08:22;;;;;;;1.63;1.53;;;;;;;;;;5069366;28;20189;-68
2022/08/02 11:10:50;;;;;;;1.60;1.50;;;;;;;;;;5073809;28;20209;-68
2022/08/02 11:13:25;;;;;;;2.47;1.70;;;;;;;;;;5076374;28;20675;-69
2022/08/02 11:15:59;;;;;;;2.00;1.83;;;;;;;;;;5067250;28;20208;-69
2022/08/02 11:18:46;;;;;;;1.43;1.30;;;;;;;;;;5074182;28;20213;-69
2022/08/02 11:21:29;;;;;;;1.87;1.60;;;;;;;;;;5078678;28;20200;-69
2022/08/02 11:24:20;;;;;;;1.53;1.33;;;;;;;;;;5071435;28;20193;-69
2022/08/02 11:26:51;;;;;;;1.50;1.40;;;;;;;;;;5081968;28;20189;-69
2022/08/02 11:29:44;;;;;;;2.80;1.70;;;;;;;;;;5087051;28;20189;-69
2022/08/02 11:32:21;;;;;;;1.70;1.60;;;;;;;;;;5081486;28;20218;-69
2022/08/02 11:34:59;;;;;;;1.50;1.40;;;;;;;;;;5084365;28;20286;-69
2022/08/02 11:37:34;;;;;;;1.80;1.70;;;;;;;;;;5069241;28;20243;-69
2022/08/02 11:40:17;;;;;;;1.40;1.30;;;;;;;;;;5070289;28;20220;-68
2022/08/02 11:43:03;;;;;;;1.50;1.40;;;;;;;;;;5069546;28;20188;-68
2022/08/02 11:45:36;;;;;;;1.60;1.50;;;;;;;;;;5092631;28;20189;-69
2022/08/02 11:48:07;;;;;;;1.33;1.23;;;;;;;;;;5086930;28;20224;-69
2022/08/02 11:50:39;;;;;;;1.73;1.50;;;;;;;;;;5085855;28;20825;-69
2022/08/02 11:53:14;;;;;;;1.60;1.50;;;;;;;;;;5062053;28;20303;-69
2022/08/02 11:55:49;;;;;;;1.83;1.33;;;;;;;;;;5071416;28;20193;-69
2022/08/02 11:58:17;;;;;;;1.63;1.53;;;;;;;;;;5081626;28;20193;-69
2022/08/02 12:00:53;;;;;;;2.07;1.60;;;;;;;;;;5085566;28;20265;-69
2022/08/02 12:03:21;;;;;;;1.40;1.30;;;;;;;;;;5074748;28;20768;-69
2022/08/02 12:05:53;;;;;;;1.80;1.67;;;;;;;;;;5084906;28;20246;-69
2022/08/02 12:08:37;;;;;;;1.80;1.53;;;;;;;;;;5086873;28;20235;-68
2022/08/02 12:11:10;;;;;;;1.60;1.50;;;;;;;;;;5079509;28;20442;-69
2022/08/02 12:13:44;;;;;;;1.40;1.30;;;;;;;;;;5079380;28;20196;-69
2022/08/02 12:19:18;;;;;;;1.40;1.30;;;;;;;;;;5073712;28;20715;-69
2022/08/02 12:22:07;;;;;;;1.50;1.40;;;;;;;;;;5090703;28;20661;-69
2022/08/02 12:24:42;;;;;;;1.37;1.27;;;;;;;;;;5068740;28;20548;-69
2022/08/02 12:27:28;;;;;;;1.47;1.37;;;;;;;;;;5080427;28;20531;-68
2022/08/02 12:30:02;;;;;;;1.50;1.40;;;;;;;;;;5064612;28;20271;-69
2022/08/02 12:32:34;;;;;;;1.33;1.27;;;;;;;;;;5086611;28;20208;-69
2022/08/02 12:35:08;;;;;;;1.43;1.27;;;;;;;;;;5070789;28;20341;-69
2022/08/02 12:37:42;;;;;;;1.73;1.20;;;;;;;;;;5068708;28;20236;-69
2022/08/02 12:40:31;;;;;;;1.30;1.20;;;;;;;;;;5065005;28;20232;-68
2022/08/02 12:43:04;;;;;;;1.53;1.30;;;;;;;;;;5035976;28;20213;-68
2022/08/02 12:45:44;;;;;;;1.50;1.40;;;;;;;;;;5035973;28;20882;-69
2022/08/02 12:48:18;;;;;;;2.40;1.20;;;;;;;;;;5059840;28;20228;-68
2022/08/02 12:50:49;;;;;;;1.47;1.30;;;;;;;;;;5052218;28;20205;-69
2022/08/02 12:53:18;;;;;;;1.57;1.40;;;;;;;;;;5064972;28;20201;-68
2022/08/02 12:55:55;;;;;;;1.57;1.47;;;;;;;;;;5043951;28;20535;-69
2022/08/02 12:58:51;;;;;;;1.43;1.33;;;;;;;;;;5069382;28;20197;-69
2022/08/02 13:01:22;;;;;;;1.40;1.30;;;;;;;;;;5052104;28;20214;-68
2022/08/02 13:03:57;;;;;;;1.40;1.30;;;;;;;;;;5035480;28;20213;-68
2022/08/02 13:06:43;;;;;;;2.50;1.30;;;;;;;;;;5054874;28;20198;-69
2022/08/02 13:09:15;;;;;;;1.23;1.10;;;;;;;;;;5066325;28;20186;-68
2022/08/02 13:11:50;;;;;;;1.40;1.30;;;;;;;;;;5068062;28;20241;-69
2022/08/02 13:14:20;;;;;;;1.23;1.13;;;;;;;;;;5068559;28;20205;-68
2022/08/02 13:16:56;;;;;;;1.50;1.30;;;;;;;;;;5060431;28;20210;-68
2022/08/02 13:19:28;;;;;;;1.67;1.40;;;;;;;;;;5061310;28;20201;-69
2022/08/02 13:22:00;;;;;;;1.23;1.13;;;;;;;;;;5065340;28;20213;-69
2022/08/02 13:24:34;;;;;;;1.47;1.37;;;;;;;;;;5066080;28;20201;-68
2022/08/02 13:27:25;;;;;;;1.43;1.33;;;;;;;;;;5066632;28;20871;-68
2022/08/02 13:30:00;;;;;;;1.80;1.40;;;;;;;;;;5063189;28;20194;-69
2022/08/02 13:32:36;;;;;;;1.30;1.17;;;;;;;;;;5066563;28;20194;-69
2022/08/02 13:35:08;;;;;;;1.27;1.17;;;;;;;;;;5065236;28;20186;-68
2022/08/02 13:37:47;;;;;;;1.47;1.37;;;;;;;;;;5075931;28;20251;-68
2022/08/02 13:40:25;;;;;;;2.67;1.50;;;;;;;;;;5061660;28;20244;-69
2022/08/02 13:43:13;;;;;;;1.40;1.30;;;;;;;;;;5064049;28;20190;-69
2022/08/02 13:45:42;;;;;;;1.40;1.30;;;;;;;;;;5059475;28;20216;-69
2022/08/02 13:48:25;;;;;;;1.30;1.20;;;;;;;;;;5056601;28;20268;-69
2022/08/02 13:50:59;;;;;;;3.20;1.47;;;;;;;;;;5027458;28;20222;-69
2022/08/02 13:53:31;;;;;;;1.33;1.23;;;;;;;;;;5062419;28;20259;-69
2022/08/02 13:56:04;;;;;;;1.70;1.40;;;;;;;;;;5063339;28;20204;-69
2022/08/02 13:58:36;;;;;;;1.30;1.20;;;;;;;;;;5057537;28;20217;-69
2022/08/02 14:01:07;;;;;;;1.40;1.30;;;;;;;;;;5050276;28;20281;-69
2022/08/02 14:03:39;;;;;;;1.27;1.17;;;;;;;;;;5063301;28;20221;-69
2022/08/02 14:06:33;;;;;;;1.50;1.40;;;;;;;;;;5068334;28;20185;-68
2022/08/02 14:09:08;;;;;;;2.13;1.30;;;;;;;;;;5051644;28;20192;-68
2022/08/02 14:11:45;;;;;;;1.37;1.27;;;;;;;;;;5057540;28;20738;-69
2022/08/02 14:14:14;;;;;;;1.60;1.50;;;;;;;;;;5054124;28;20211;-69
2022/08/02 14:16:49;;;;;;;2.53;1.30;;;;;;;;;;5056549;28;20290;-68
2022/08/02 14:19:20;;;;;;;3.03;1.37;;;;;;;;;;5050216;28;20202;-68
2022/08/02 14:21:52;;;;;;;1.23;1.07;;;;;;;;;;5067131;28;20564;-68
2022/08/02 14:24:40;;;;;;;1.40;1.23;;;;;;;;;;5067332;28;20190;-69
2022/08/02 14:27:17;;;;;;;1.73;1.23;;;;;;;;;;5041863;28;20197;-68
2022/08/02 14:29:50;;;;;;;1.50;1.30;;;;;;;;;;5055215;28;20206;-69
2022/08/02 14:32:17;;;;;;;1.80;1.30;;;;;;;;;;5057848;28;20229;-69
2022/08/02 14:34:59;;;;;;;1.40;1.20;;;;;;;;;;5060041;28;20198;-69
2022/08/02 14:37:39;;;;;;;1.30;1.20;;;;;;;;;;5065700;28;20257;-69
2022/08/02 14:40:09;;;;;;;1.37;1.27;;;;;;;;;;5045925;28;20854;-68
2022/08/02 14:42:58;;;;;;;0.90;0.90;;;;;;;;;;5068055;28;20240;-69
2022/08/02 14:45:28;;;;;;;1.20;1.20;;;;;;;;;;5049746;28;20208;-69
2022/08/02 14:48:08;;;;;;;1.50;1.10;;;;;;;;;;5050416;28;20201;-68
2022/08/02 14:50:41;;;;;;;1.33;1.10;;;;;;;;;;5066529;28;20557;-69
2022/08/02 14:53:12;;;;;;;1.00;1.00;;;;;;;;;;5060669;28;20205;-70
2022/08/02 14:55:43;;;;;;;1.17;1.07;;;;;;;;;;5066673;28;20220;-69
2022/08/02 14:58:15;;;;;;;1.20;1.10;;;;;;;;;;5071313;28;20198;-68
2022/08/02 15:00:48;;;;;;;1.33;1.20;;;;;;;;;;5065218;28;20292;-69
2022/08/02 15:03:19;;;;;;;0.97;0.97;;;;;;;;;;5063319;28;20793;-70
2022/08/02 15:05:51;;;;;;;1.57;1.17;;;;;;;;;;5067210;28;20186;-68
2022/08/02 15:08:20;;;;;;;2.40;1.50;;;;;;;;;;5067497;28;20194;-68
2022/08/02 15:10:57;;;;;;;1.53;1.43;;;;;;;;;;5060168;28;20230;-69
2022/08/02 15:13:29;;;;;;;2.13;1.63;;;;;;;;;;5049531;28;20217;-69
2022/08/02 15:16:10;;;;;;;2.50;1.80;;;;;;;;;;5066795;28;20209;-69
2022/08/02 15:18:42;;;;;;;3.27;2.07;;;;;;;;;;5052940;28;20206;-68
2022/08/02 15:21:16;;;;;;;2.60;2.00;;;;;;;;;;5052208;28;20484;-69
2022/08/02 15:24:03;;;;;;;2.40;2.20;;;;;;;;;;5054616;28;20308;-70
2022/08/02 15:26:35;;;;;;;2.53;2.13;;;;;;;;;;5066992;28;20227;-70
2022/08/02 15:29:06;;;;;;;2.47;2.27;;;;;;;;;;5051786;28;20353;-69
2022/08/02 15:31:35;;;;;;;2.53;2.20;;;;;;;;;;5066936;28;20202;-69
2022/08/02 15:34:10;;;;;;;3.53;2.47;;;;;;;;;;5066997;28;20223;-70
2022/08/02 15:36:47;;;;;;;2.53;2.20;;;;;;;;;;5062639;28;20200;-69
2022/08/02 15:39:17;;;;;;;3.77;2.40;;;;;;;;;;5051458;28;20241;-69